createdAt,value
2018-09-02T00:00:21.334Z,79.20
2018-09-02T00:02:50.339Z,78.90
2018-09-02T00:05:19.350Z,79.20
2018-09-02T00:07:48.368Z,79.00
2018-09-02T00:10:17.367Z,78.70
2018-09-02T00:12:46.466Z,78.50
2018-09-02T00:15:15.452Z,79.30
2018-09-02T00:17:44.480Z,79.50
2018-09-02T00:20:13.575Z,78.90
2018-09-02T00:22:42.666Z,78.90
2018-09-02T00:25:11.691Z,78.80
2018-09-02T00:27:40.668Z,79.20
2018-09-02T00:30:10.008Z,79.90
2018-09-02T00:32:38.961Z,80.70
2018-09-02T00:35:08.027Z,81.80
2018-09-02T00:37:36.992Z,81.40
2018-09-02T00:40:06.169Z,81.30
2018-09-02T00:42:35.124Z,81.00
2018-09-02T00:45:04.232Z,81.30
2018-09-02T00:47:33.222Z,81.30
2018-09-02T00:50:02.249Z,81.10
2018-09-02T00:52:31.452Z,81.30
2018-09-02T00:55:00.424Z,81.40
2018-09-02T00:57:29.397Z,81.40
2018-09-02T00:59:58.420Z,81.20
2018-09-02T01:02:27.416Z,81.20
2018-09-02T01:04:56.380Z,81.30
2018-09-02T01:07:25.335Z,81.70
2018-09-02T01:09:54.423Z,81.70
2018-09-02T01:12:23.405Z,81.80
2018-09-02T01:14:52.428Z,81.50
2018-09-02T01:17:21.408Z,81.50
2018-09-02T01:19:50.432Z,81.40
2018-09-02T01:22:19.396Z,81.50
2018-09-02T01:24:48.665Z,81.30
2018-09-02T01:27:17.657Z,81.50
2018-09-02T01:29:46.660Z,81.50
2018-09-02T01:32:15.804Z,81.80
2018-09-02T01:34:44.778Z,81.80
2018-09-02T01:37:13.801Z,82.10
2018-09-02T01:39:42.907Z,81.90
2018-09-02T01:42:11.913Z,82.50
2018-09-02T01:44:40.961Z,82.60
2018-09-02T01:47:09.964Z,82.30
2018-09-02T01:49:38.950Z,82.60
2018-09-02T01:52:07.945Z,83.00
2018-09-02T01:54:36.969Z,82.80
2018-09-02T01:57:06.006Z,82.70
2018-09-02T01:59:35.059Z,82.80
2018-09-02T02:02:04.388Z,82.60
2018-09-02T02:04:38.860Z,82.50
2018-09-02T02:07:08.221Z,82.70
2018-09-02T02:09:37.209Z,82.70
2018-09-02T02:12:06.253Z,83.60
2018-09-02T02:14:35.301Z,82.90
2018-09-02T02:17:04.278Z,83.10
2018-09-02T02:19:33.700Z,83.10
2018-09-02T02:22:03.065Z,83.10
2018-09-02T02:24:32.053Z,83.40
2018-09-02T02:27:01.073Z,83.30
2018-09-02T02:29:30.100Z,83.50
2018-09-02T02:31:59.110Z,84.00
2018-09-02T02:34:28.187Z,84.10
2018-09-02T02:36:57.169Z,84.40
2018-09-02T02:39:26.221Z,83.90
2018-09-02T02:41:55.224Z,84.50
2018-09-02T02:44:24.229Z,84.70
2018-09-02T02:46:59.653Z,84.90
2018-09-02T02:49:28.648Z,85.00
2018-09-02T02:51:57.664Z,85.30
2018-09-02T02:54:26.683Z,85.40
2018-09-02T02:56:55.665Z,85.60
2018-09-02T02:59:24.774Z,85.70
2018-09-02T03:01:53.752Z,85.30
2018-09-02T03:04:22.748Z,86.00
2018-09-02T03:06:51.767Z,85.50
2018-09-02T03:09:20.760Z,85.30
2018-09-02T03:11:49.806Z,85.30
2018-09-02T03:14:18.786Z,85.50
2018-09-02T03:16:47.887Z,85.30
2018-09-02T03:19:16.886Z,85.50
2018-09-02T03:21:45.880Z,85.90
2018-09-02T03:24:14.899Z,85.80
2018-09-02T03:26:43.930Z,86.10
2018-09-02T03:29:12.909Z,86.30
2018-09-02T03:31:41.917Z,86.80
2018-09-02T03:34:10.922Z,87.40
2018-09-02T03:36:39.973Z,87.30
2018-09-02T03:39:09.341Z,87.40
2018-09-02T03:41:38.358Z,87.60
2018-09-02T03:44:07.373Z,87.80
2018-09-02T03:46:36.380Z,88.30
2018-09-02T03:49:05.388Z,88.00
2018-09-02T03:51:34.396Z,88.40
2018-09-02T03:54:03.466Z,88.00
2018-09-02T03:56:32.460Z,88.30
2018-09-02T03:59:01.540Z,88.00
2018-09-02T04:01:30.536Z,88.10
2018-09-02T04:03:59.935Z,88.10
2018-09-02T04:06:28.901Z,88.80
2018-09-02T04:08:57.908Z,89.50
2018-09-02T04:11:26.939Z,88.80
2018-09-02T04:13:55.990Z,89.20
2018-09-02T04:16:25.009Z,89.60
2018-09-02T04:18:54.040Z,90.00
2018-09-02T04:21:23.040Z,90.10
2018-09-02T04:23:52.076Z,90.10
2018-09-02T04:26:21.069Z,89.80
2018-09-02T04:28:50.081Z,89.60
2018-09-02T04:31:19.081Z,89.50
2018-09-02T04:33:48.150Z,89.20
2018-09-02T04:36:17.092Z,89.10
2018-09-02T04:38:46.110Z,89.10
2018-09-02T04:41:15.297Z,89.10
2018-09-02T04:43:44.314Z,89.00
2018-09-02T04:46:13.544Z,89.40
2018-09-02T04:48:42.531Z,89.30
2018-09-02T04:51:11.556Z,89.10
2018-09-02T04:53:40.750Z,89.10
2018-09-02T04:56:09.820Z,89.40
2018-09-02T04:58:38.818Z,89.70
2018-09-02T05:01:07.862Z,89.80
2018-09-02T05:03:36.849Z,89.80
2018-09-02T05:06:05.931Z,90.10
2018-09-02T05:08:34.915Z,90.20
2018-09-02T05:11:03.916Z,90.30
2018-09-02T05:13:32.889Z,90.00
2018-09-02T05:16:01.935Z,90.00
2018-09-02T05:18:30.909Z,90.00
2018-09-02T05:20:59.905Z,89.50
2018-09-02T05:23:28.922Z,89.50
2018-09-02T05:25:57.939Z,88.90
2018-09-02T05:28:26.956Z,88.10
2018-09-02T05:30:55.996Z,88.10
2018-09-02T05:33:24.993Z,88.10
2018-09-02T05:35:54.080Z,88.30
2018-09-02T05:38:23.109Z,88.60
2018-09-02T05:40:52.140Z,88.90
2018-09-02T05:43:21.215Z,88.50
2018-09-02T05:45:50.198Z,87.90
2018-09-02T05:48:19.330Z,87.00
2018-09-02T05:50:48.596Z,86.80
2018-09-02T05:53:17.623Z,86.40
2018-09-02T05:55:46.596Z,86.40
2018-09-02T05:58:15.615Z,86.20
2018-09-02T06:00:44.694Z,85.80
2018-09-02T06:03:13.710Z,85.60
2018-09-02T06:05:42.740Z,85.40
2018-09-02T06:08:11.734Z,85.00
2018-09-02T06:10:40.721Z,85.30
2018-09-02T06:13:09.736Z,85.60
2018-09-02T06:15:38.733Z,85.70
2018-09-02T06:18:07.750Z,85.50
2018-09-02T06:20:36.756Z,85.00
2018-09-02T06:23:05.737Z,84.70
2018-09-02T06:25:34.753Z,84.40
2018-09-02T06:28:03.765Z,84.50
2018-09-02T06:30:32.761Z,83.90
2018-09-02T06:33:01.928Z,83.20
2018-09-02T06:35:30.890Z,82.90
2018-09-02T06:37:59.876Z,82.70
2018-09-02T06:40:28.875Z,82.30
2018-09-02T06:42:57.861Z,81.10
2018-09-02T06:45:26.891Z,81.20
2018-09-02T06:47:55.915Z,81.30
2018-09-02T06:50:25.109Z,81.10
2018-09-02T06:52:54.130Z,81.70
2018-09-02T06:55:23.156Z,81.10
2018-09-02T06:57:52.082Z,80.90
2018-09-02T07:00:21.228Z,79.90
2018-09-02T07:02:50.638Z,80.00
2018-09-02T07:05:19.653Z,79.20
2018-09-02T07:07:48.688Z,79.60
2018-09-02T07:10:17.677Z,79.50
2018-09-02T07:12:46.729Z,79.30
2018-09-02T07:15:15.761Z,79.10
2018-09-02T07:17:44.748Z,78.90
2018-09-02T07:20:13.861Z,77.30
2018-09-02T07:22:42.791Z,76.20
2018-09-02T07:25:11.784Z,71.20
2018-09-02T07:27:40.785Z,65.80
2018-09-02T07:30:10.169Z,63.10
2018-09-02T07:32:39.161Z,60.80
2018-09-02T07:35:08.172Z,58.50
2018-09-02T07:37:37.545Z,59.50
2018-09-02T07:40:06.548Z,59.40
2018-09-02T07:42:35.641Z,57.20
2018-09-02T07:45:04.762Z,57.70
2018-09-02T07:47:33.841Z,57.50
2018-09-02T07:50:02.897Z,55.60
2018-09-02T07:52:31.874Z,54.50
2018-09-02T07:55:00.956Z,54.60
2018-09-02T07:57:30.316Z,56.20
2018-09-02T07:59:59.304Z,56.30
2018-09-02T08:02:28.349Z,56.20
2018-09-02T08:04:57.464Z,54.30
2018-09-02T08:07:26.454Z,52.70
2018-09-02T08:09:55.480Z,50.00
2018-09-02T08:12:24.611Z,50.50
2018-09-02T08:14:53.569Z,50.60
2018-09-02T08:17:22.602Z,51.00
2018-09-02T08:19:51.707Z,50.30
2018-09-02T08:22:20.606Z,50.50
2018-09-02T08:24:49.579Z,50.40
2018-09-02T08:27:18.572Z,48.90
2018-09-02T08:29:47.569Z,47.70
2018-09-02T08:32:16.572Z,47.00
2018-09-02T08:34:45.576Z,47.10
2018-09-02T08:37:14.596Z,48.40
2018-09-02T08:39:43.633Z,47.90
2018-09-02T08:42:12.629Z,47.80
2018-09-02T08:44:41.609Z,46.90
2018-09-02T08:47:10.965Z,47.30
2018-09-02T08:49:40.075Z,46.10
2018-09-02T08:52:09.649Z,46.50
2018-09-02T08:54:38.664Z,47.10
2018-09-02T08:57:08.092Z,47.30
2018-09-02T08:59:37.089Z,45.60
2018-09-02T09:02:06.528Z,45.20
2018-09-02T09:04:35.573Z,41.40
2018-09-02T09:07:04.592Z,39.80
2018-09-02T09:09:33.643Z,37.60
2018-09-02T09:12:02.644Z,36.70
2018-09-02T09:14:31.866Z,35.80
2018-09-02T09:17:00.944Z,34.90
2018-09-02T09:19:29.972Z,36.00
2018-09-02T09:21:59.357Z,37.40
2018-09-02T09:24:28.350Z,36.60
2018-09-02T09:26:57.428Z,36.60
2018-09-02T09:29:26.401Z,35.80
2018-09-02T09:31:55.381Z,36.90
2018-09-02T09:34:24.492Z,36.40
2018-09-02T09:39:33.027Z,34.20
2018-09-02T09:42:02.048Z,33.70
2018-09-02T09:44:31.065Z,34.40
2018-09-02T09:47:00.141Z,33.60
2018-09-02T09:49:29.214Z,35.50
2018-09-02T09:51:58.717Z,33.90
2018-09-02T09:54:27.978Z,34.70
2018-09-02T09:56:56.995Z,35.20
2018-09-02T09:59:26.057Z,32.80
2018-09-02T10:01:55.094Z,33.00
2018-09-02T10:04:24.464Z,34.70
2018-09-02T10:06:53.825Z,34.00
2018-09-02T10:09:22.877Z,33.30
2018-09-02T10:11:52.002Z,33.20
2018-09-02T10:14:21.032Z,36.70
2018-09-02T10:16:50.070Z,35.80
2018-09-02T10:19:19.204Z,36.70
2018-09-02T10:21:48.202Z,36.90
2018-09-02T10:24:17.248Z,37.00
2018-09-02T10:26:46.306Z,39.10
2018-09-02T10:29:15.387Z,39.70
2018-09-02T10:31:44.461Z,38.40
2018-09-02T10:34:13.691Z,38.90
2018-09-02T10:36:44.349Z,38.80
2018-09-02T10:39:13.466Z,39.50
2018-09-02T10:41:42.685Z,40.10
2018-09-02T10:44:11.689Z,39.90
2018-09-02T10:46:42.308Z,41.10
2018-09-02T10:49:11.494Z,41.80
2018-09-02T10:51:40.522Z,42.70
2018-09-02T10:54:10.049Z,42.90
2018-09-02T10:56:39.085Z,44.50
2018-09-02T10:59:09.078Z,45.10
2018-09-02T11:01:38.105Z,45.40
2018-09-02T11:04:07.244Z,45.00
2018-09-02T11:06:36.302Z,45.20
2018-09-02T11:09:08.253Z,45.20
2018-09-02T11:11:37.461Z,46.10
2018-09-02T11:14:06.593Z,46.70
2018-09-02T11:16:35.824Z,47.10
2018-09-02T11:19:04.843Z,47.30
2018-09-02T11:21:33.926Z,47.80
2018-09-02T11:24:02.972Z,47.50
2018-09-02T11:26:32.064Z,46.50
2018-09-02T11:29:01.255Z,47.10
2018-09-02T11:31:30.297Z,47.00
2018-09-02T11:33:59.448Z,47.80
2018-09-02T11:36:28.522Z,47.80
2018-09-02T11:38:57.526Z,47.70
2018-09-02T11:41:26.513Z,46.40
2018-09-02T11:43:55.701Z,45.80
2018-09-02T11:46:24.721Z,45.80
2018-09-02T11:48:55.141Z,46.10
2018-09-02T11:51:24.147Z,46.00
2018-09-02T11:53:53.171Z,46.70
2018-09-02T11:56:22.245Z,46.10
2018-09-02T11:58:51.270Z,45.70
2018-09-02T12:01:20.286Z,45.80
2018-09-02T12:03:49.307Z,46.10
2018-09-02T12:06:18.328Z,46.60
2018-09-02T12:08:47.354Z,46.60
2018-09-02T12:11:16.434Z,46.30
2018-09-02T12:13:45.468Z,45.80
2018-09-02T12:16:14.488Z,45.70
2018-09-02T12:18:43.773Z,45.40
2018-09-02T12:21:12.781Z,46.20
2018-09-02T12:23:41.776Z,46.10
2018-09-02T12:26:11.970Z,46.50
2018-09-02T12:28:40.981Z,46.30
2018-09-02T12:31:10.358Z,47.00
2018-09-02T12:33:39.442Z,47.20
2018-09-02T12:36:09.134Z,47.50
2018-09-02T12:38:38.263Z,47.90
2018-09-02T12:41:07.254Z,48.30
2018-09-02T12:43:36.272Z,48.90
2018-09-02T12:46:05.327Z,48.90
2018-09-02T12:48:34.363Z,49.10
2018-09-02T12:51:03.444Z,49.00
2018-09-02T12:53:32.512Z,49.00
2018-09-02T12:56:01.576Z,49.00
2018-09-02T12:58:30.733Z,48.80
2018-09-02T13:01:00.489Z,49.10
2018-09-02T13:03:29.534Z,49.10
2018-09-02T13:05:58.543Z,49.20
2018-09-02T13:08:27.641Z,49.70
2018-09-02T13:10:56.981Z,49.30
2018-09-02T13:13:26.004Z,49.80
2018-09-02T13:15:55.109Z,49.90
2018-09-02T13:18:24.678Z,50.30
2018-09-02T13:20:54.033Z,50.40
2018-09-02T13:23:23.020Z,50.00
2018-09-02T13:25:52.025Z,50.00
2018-09-02T13:28:21.267Z,49.50
2018-09-02T13:30:50.304Z,49.70
2018-09-02T13:33:19.316Z,49.30
2018-09-02T13:35:48.404Z,48.40
2018-09-02T13:38:17.456Z,48.30
2018-09-02T13:40:46.505Z,48.80
2018-09-02T13:43:15.642Z,49.20
2018-09-02T13:45:44.636Z,49.10
2018-09-02T13:48:13.764Z,48.60
2018-09-02T13:50:42.840Z,48.40
2018-09-02T13:53:11.868Z,47.80
2018-09-02T13:55:40.868Z,47.70
2018-09-02T13:58:09.926Z,47.10
2018-09-02T14:00:38.957Z,46.80
2018-09-02T14:03:07.949Z,46.80
2018-09-02T14:05:37.057Z,46.80
2018-09-02T14:08:06.296Z,46.30
2018-09-02T14:10:35.277Z,46.30
2018-09-02T14:13:04.292Z,46.00
2018-09-02T14:15:33.397Z,45.70
2018-09-02T14:18:02.497Z,45.50
2018-09-02T14:20:31.574Z,46.30
2018-09-02T14:23:00.845Z,45.80
2018-09-02T14:25:29.976Z,46.10
2018-09-02T14:27:59.061Z,46.40
2018-09-02T14:30:28.077Z,46.20
2018-09-02T14:32:57.092Z,47.00
2018-09-02T14:35:26.116Z,45.60
2018-09-02T14:37:55.140Z,45.30
2018-09-02T14:40:24.156Z,45.40
2018-09-02T14:42:53.201Z,45.60
2018-09-02T14:45:22.218Z,45.40
2018-09-02T14:47:51.238Z,45.40
2018-09-02T14:50:20.244Z,46.00
2018-09-02T14:52:49.269Z,46.10
2018-09-02T14:55:18.331Z,46.30
2018-09-02T14:57:47.324Z,46.30
2018-09-02T15:00:16.382Z,47.10
2018-09-02T15:02:45.398Z,47.00
2018-09-02T15:05:14.516Z,46.90
2018-09-02T15:07:43.640Z,47.00
2018-09-02T15:10:12.689Z,46.90
2018-09-02T15:12:41.742Z,46.50
2018-09-02T15:15:10.796Z,46.60
2018-09-02T15:17:39.783Z,46.60
2018-09-02T15:20:08.834Z,46.50
2018-09-02T15:22:37.834Z,46.50
2018-09-02T15:25:06.929Z,46.50
2018-09-02T15:27:35.929Z,46.30
2018-09-02T15:30:05.293Z,45.80
2018-09-02T15:32:36.024Z,45.00
2018-09-02T15:35:05.312Z,45.50
2018-09-02T15:37:34.345Z,45.70
2018-09-02T15:40:03.468Z,46.60
2018-09-02T15:42:32.513Z,46.30
2018-09-02T15:45:01.649Z,46.20
2018-09-02T15:47:30.694Z,45.90
2018-09-02T15:49:59.713Z,46.20
2018-09-02T15:52:28.991Z,46.40
2018-09-02T15:54:57.971Z,46.20
2018-09-02T15:57:27.028Z,46.80
2018-09-02T15:59:56.073Z,46.40
2018-09-02T16:02:25.134Z,46.10
2018-09-02T16:04:54.210Z,46.20
2018-09-02T16:07:27.418Z,46.00
2018-09-02T16:09:56.466Z,45.80
2018-09-02T16:12:25.470Z,45.60
2018-09-02T16:14:54.722Z,45.50
2018-09-02T16:17:23.761Z,45.80
2018-09-02T16:19:52.833Z,45.90
2018-09-02T16:22:22.004Z,46.00
2018-09-02T16:24:51.027Z,46.00
2018-09-02T16:27:20.242Z,45.70
2018-09-02T16:29:49.278Z,45.70
2018-09-02T16:32:18.309Z,46.00
2018-09-02T16:34:47.322Z,45.70
2018-09-02T16:37:16.424Z,45.80
2018-09-02T16:39:45.486Z,46.30
2018-09-02T16:42:14.587Z,46.30
2018-09-02T16:44:43.614Z,46.10
2018-09-02T16:47:12.632Z,46.30
2018-09-02T16:49:41.657Z,46.40
2018-09-02T16:52:10.669Z,46.50
2018-09-02T16:54:39.662Z,46.20
2018-09-02T16:57:08.689Z,46.40
2018-09-02T16:59:37.723Z,46.50
2018-09-02T17:02:06.866Z,46.80
2018-09-02T17:04:37.988Z,46.80
2018-09-02T17:07:06.993Z,47.00
2018-09-02T17:09:36.142Z,47.00
2018-09-02T17:12:05.365Z,47.30
2018-09-02T17:14:34.234Z,47.50
2018-09-02T17:17:03.213Z,47.80
2018-09-02T17:21:43.613Z,47.90
2018-09-02T17:24:12.748Z,48.30
2018-09-02T17:26:41.721Z,48.00
2018-09-02T17:29:10.741Z,48.30
2018-09-02T17:31:39.783Z,48.60
2018-09-02T17:34:08.817Z,49.10
2018-09-02T17:36:37.928Z,49.20
2018-09-02T17:39:09.028Z,49.50
2018-09-02T17:41:38.279Z,49.80
2018-09-02T17:44:07.304Z,50.00
2018-09-02T17:46:36.369Z,50.20
2018-09-02T17:49:05.401Z,50.40
2018-09-02T17:51:34.394Z,50.50
2018-09-02T17:54:03.420Z,50.70
2018-09-02T17:56:32.423Z,50.80
2018-09-02T17:59:01.746Z,51.20
2018-09-02T18:01:30.805Z,51.10
2018-09-02T18:03:59.868Z,51.50
2018-09-02T18:06:28.944Z,51.60
2018-09-02T18:08:57.921Z,51.20
2018-09-02T18:11:27.288Z,51.40
2018-09-02T18:13:56.308Z,51.80
2018-09-02T18:16:25.357Z,51.90
2018-09-02T18:18:54.412Z,52.20
2018-09-02T18:21:23.529Z,52.10
2018-09-02T18:23:52.543Z,52.30
2018-09-02T18:26:21.546Z,52.30
2018-09-02T18:28:51.049Z,52.30
2018-09-02T18:31:20.084Z,52.60
2018-09-02T18:33:49.108Z,52.10
2018-09-02T18:36:18.113Z,52.40
2018-09-02T18:38:47.217Z,52.40
2018-09-02T18:41:16.249Z,52.60
2018-09-02T18:43:45.253Z,52.60
2018-09-02T18:46:14.849Z,52.90
2018-09-02T18:48:43.858Z,52.80
2018-09-02T18:51:12.889Z,52.90
2018-09-02T18:53:41.872Z,52.70
2018-09-02T18:56:17.724Z,52.80
2018-09-02T18:58:46.834Z,53.00
2018-09-02T19:01:15.828Z,52.90
2018-09-02T19:03:45.027Z,52.90
2018-09-02T19:06:14.017Z,53.10
2018-09-02T19:08:43.001Z,53.10
2018-09-02T19:11:12.037Z,53.20
2018-09-02T19:13:41.033Z,53.20
2018-09-02T19:16:10.307Z,53.10
2018-09-02T19:18:39.274Z,53.90
2018-09-02T19:21:08.244Z,53.50
2018-09-02T19:23:37.369Z,53.60
2018-09-02T19:26:06.280Z,53.70
2018-09-02T19:28:35.251Z,53.80
2018-09-02T19:31:04.300Z,54.00
2018-09-02T19:33:33.317Z,54.30
2018-09-02T19:36:02.324Z,54.20
2018-09-02T19:38:31.319Z,54.30
2018-09-02T19:41:00.313Z,54.30
2018-09-02T19:43:29.361Z,54.50
2018-09-02T19:45:58.348Z,54.60
2018-09-02T19:48:27.481Z,54.50
2018-09-02T19:50:56.458Z,55.20
2018-09-02T19:53:25.467Z,55.10
2018-09-02T19:55:54.501Z,55.20
2018-09-02T19:58:23.490Z,55.70
2018-09-02T20:00:52.697Z,55.90
2018-09-02T20:03:21.688Z,56.00
2018-09-02T20:05:50.710Z,56.10
2018-09-02T20:08:19.716Z,56.40
2018-09-02T20:10:48.722Z,56.80
2018-09-02T20:13:18.064Z,57.20
2018-09-02T20:15:47.327Z,57.40
2018-09-02T20:18:16.329Z,57.50
2018-09-02T20:20:45.468Z,57.60
2018-09-02T20:23:14.441Z,57.90
2018-09-02T20:25:43.459Z,58.10
2018-09-02T20:28:14.247Z,58.20
2018-09-02T20:30:43.256Z,58.20
2018-09-02T20:33:12.349Z,58.50
2018-09-02T20:35:41.451Z,58.60
2018-09-02T20:38:10.756Z,58.60
2018-09-02T20:40:39.749Z,58.90
2018-09-02T20:43:08.761Z,59.10
2018-09-02T20:45:37.813Z,59.30
2018-09-02T20:48:06.856Z,59.40
2018-09-02T20:50:35.872Z,59.40
2018-09-02T20:53:05.313Z,59.40
2018-09-02T20:55:34.312Z,59.50
2018-09-02T20:58:03.381Z,59.60
2018-09-02T21:00:32.729Z,59.80
2018-09-02T21:03:01.783Z,60.00
2018-09-02T21:05:30.837Z,60.00
2018-09-02T21:07:59.884Z,60.40
2018-09-02T21:10:28.885Z,60.60
2018-09-02T21:12:57.913Z,60.80
2018-09-02T21:15:26.939Z,60.80
2018-09-02T21:17:55.936Z,60.90
2018-09-02T21:20:24.997Z,61.20
2018-09-02T21:22:54.121Z,61.30
2018-09-02T21:25:23.219Z,61.50
2018-09-02T21:27:52.245Z,61.40
2018-09-02T21:30:21.267Z,61.70
2018-09-02T21:32:50.299Z,61.60
2018-09-02T21:35:19.282Z,61.70
2018-09-02T21:37:48.341Z,61.90
2018-09-02T21:40:17.596Z,61.90
2018-09-02T21:42:46.940Z,62.40
2018-09-02T21:45:16.004Z,62.40
2018-09-02T21:47:45.321Z,62.60
2018-09-02T21:50:14.677Z,63.10
2018-09-02T21:52:43.777Z,63.80
2018-09-02T21:55:12.873Z,63.20
2018-09-02T21:57:41.876Z,63.20
2018-09-02T22:00:13.304Z,63.30
2018-09-02T22:02:42.453Z,63.70
2018-09-02T22:05:13.100Z,63.60
2018-09-02T22:07:43.129Z,64.20
2018-09-02T22:10:12.503Z,64.20
2018-09-02T22:12:41.511Z,64.80
2018-09-02T22:15:11.227Z,65.30
2018-09-02T22:17:40.248Z,65.20
2018-09-02T22:20:09.324Z,65.90
2018-09-02T22:22:38.352Z,65.10
2018-09-02T22:25:08.236Z,65.00
2018-09-02T22:27:37.325Z,64.70
2018-09-02T22:30:07.344Z,64.70
2018-09-02T22:32:36.370Z,64.60
2018-09-02T22:35:05.590Z,65.10
2018-09-02T22:37:34.902Z,64.80
2018-09-02T22:40:03.965Z,64.50
2018-09-02T22:42:32.944Z,64.30
2018-09-02T22:45:01.972Z,64.60
2018-09-02T22:47:30.957Z,64.50
2018-09-02T22:50:00.089Z,64.60
2018-09-02T22:52:29.114Z,64.40
2018-09-02T22:54:58.101Z,64.60
2018-09-02T22:57:27.259Z,64.80
2018-09-02T22:59:56.517Z,65.00
2018-09-02T23:02:25.556Z,65.20
2018-09-02T23:04:54.537Z,65.30
2018-09-02T23:07:23.571Z,65.70
2018-09-02T23:09:52.566Z,66.00
2018-09-02T23:12:21.685Z,66.30
2018-09-02T23:14:50.767Z,66.50
2018-09-02T23:17:19.764Z,67.00
2018-09-02T23:19:48.884Z,67.40
2018-09-02T23:22:17.936Z,67.90
2018-09-02T23:24:46.925Z,68.30
2018-09-02T23:27:15.997Z,69.10
2018-09-02T23:29:45.006Z,69.40
2018-09-02T23:32:14.417Z,69.40
2018-09-02T23:34:43.435Z,69.70
2018-09-02T23:37:12.447Z,70.00
2018-09-02T23:39:41.432Z,70.10
2018-09-02T23:42:10.651Z,70.40
2018-09-02T23:44:39.644Z,70.60
2018-09-02T23:47:08.672Z,71.20
2018-09-02T23:49:37.669Z,71.60
2018-09-02T23:52:06.741Z,71.50
2018-09-02T23:54:35.761Z,71.80
2018-09-02T23:57:05.024Z,71.80
2018-09-02T23:59:34.375Z,72.20
